This is the latest recevied weather packets stored in our database for station/object AD9CI-15. If no packets are shown the sender has not sent any weather packets the latest 10 day(s).
| Time | Temp. | Humidity | Pressure | Rain* | Wind** | Luminosity | Snow |
|---|---|---|---|---|---|---|---|
| 1777440743 | 13.33° C | 56% | 1013.1 hPa | - | - | - | - |
| 1777437143 | 12.78° C | 60% | 1013.5 hPa | - | - | - | - |
| 1777433544 | 13.33° C | 59% | 1012.8 hPa | - | - | - | - |
| 1777429942 | 13.33° C | 58% | 1012.6 hPa | - | - | - | - |
| 1777426342 | 15.56° C | 47% | 1012.1 hPa | - | - | - | - |
| 1777424663 | 16.11° C | 45% | 1012 hPa | - | - | - | - |
| 1777422742 | 16.11° C | 45% | 1011.8 hPa | - | - | - | - |
| 1777421063 | 16.67° C | 46% | 1011.6 hPa | - | - | - | - |
| 1777419142 | 17.22° C | 44% | 1011.4 hPa | - | - | - | - |
| 1777417463 | 18.33° C | 45% | 1011.2 hPa | - | - | - | - |
| 1777413863 | 18.33° C | 45% | 1011.6 hPa | - | - | - | - |
| 1777411943 | 18.33° C | 45% | 1011.5 hPa | - | - | - | - |
| 1777410264 | 18.89° C | 45% | 1011.5 hPa | - | - | - | - |
| 1777408343 | 18.33° C | 48% | 1011.9 hPa | - | - | - | - |
| 1777406664 | 18.33° C | 49% | 1012.1 hPa | - | - | - | - |
| 1777404743 | 17.78° C | 52% | 1012.4 hPa | - | - | - | - |
| 1777403064 | 17.22° C | 55% | 1012.3 hPa | - | - | - | - |
| 1777401143 | 16.11° C | 55% | 1012.4 hPa | - | - | - | - |
| 1777399462 | 15.56° C | 57% | 1012 hPa | - | - | - | - |
| 1777397542 | 15° C | 59% | 1011.8 hPa | - | - | - | - |
| 1777395862 | 13.89° C | 59% | 1011.9 hPa | - | - | - | - |
| 1777393942 | 12.78° C | 59% | 1011.7 hPa | - | - | - | - |
| 1777392262 | 12.78° C | 61% | 1011.2 hPa | - | - | - | - |
| 1777390342 | 12.78° C | 63% | 1010.9 hPa | - | - | - | - |
| 1777388662 | 12.22° C | 62% | 1010.7 hPa | - | - | - | - |
* Rain since midnight (hover to see other rain measurements)
** Current wind speed in m/s (hover to see current wind gust speed)